Time;durP1;ratioP1;P1;durP2;ratioP2;P2;SDS_P1;SDS_P2;PMS_P1;PMS_P2;Temp;Humidity;BMP_temperature;BMP_pressure;BME280_temperature;BME280_humidity;BME280_pressure;Samples;Min_cycle;Max_cycle;Signal;HPM_P1;HPM_P2
2023/07/30 00:01:51;;;;;;;;;16.33;14.67;;;;;;;;5103527;27;45574;-74
2023/07/30 00:04:16;;;;;;;;;13.00;12.33;;;;;;;;5102371;27;47738;-74
2023/07/30 00:06:42;;;;;;;;;15.00;13.67;;;;;;;;5102774;27;45348;-74
2023/07/30 00:09:07;;;;;;;;;14.00;14.00;;;;;;;;5102617;27;45371;-74
2023/07/30 00:11:32;;;;;;;;;14.00;14.00;;;;;;;;5103744;27;45319;-73
2023/07/30 00:13:57;;;;;;;;;13.67;13.33;;;;;;;;5103492;27;47036;-74
2023/07/30 00:16:25;;;;;;;;;10.00;10.00;;;;;;;;5103759;27;45321;-74
2023/07/30 00:18:50;;;;;;;;;12.00;11.00;;;;;;;;5122348;27;45372;-74
2023/07/30 00:21:15;;;;;;;;;9.00;9.00;;;;;;;;5103217;27;45978;-74
2023/07/30 00:23:40;;;;;;;;;9.00;9.00;;;;;;;;5103557;27;46300;-74
2023/07/30 00:26:05;;;;;;;;;10.33;10.33;;;;;;;;5103448;27;45393;-74
2023/07/30 00:28:31;;;;;;;;;9.00;9.00;;;;;;;;5105580;27;45396;-74
2023/07/30 00:30:56;;;;;;;;;11.67;9.33;;;;;;;;5124038;27;45440;-74
2023/07/30 00:33:21;;;;;;;;;6.33;6.33;;;;;;;;5124187;27;46768;-74
2023/07/30 00:35:46;;;;;;;;;6.00;6.00;;;;;;;;5123933;27;45247;-74
2023/07/30 00:38:11;;;;;;;;;4.00;4.00;;;;;;;;5124016;27;45456;-74
2023/07/30 00:40:41;;;;;;;;;3.67;3.67;;;;;;;;5123588;27;45872;-74
2023/07/30 00:43:06;;;;;;;;;5.67;5.67;;;;;;;;5123869;27;47142;-74
2023/07/30 00:45:31;;;;;;;;;4.67;4.00;;;;;;;;5123774;27;45914;-74
2023/07/30 00:47:56;;;;;;;;;4.67;4.33;;;;;;;;5123931;27;45260;-74
2023/07/30 00:50:22;;;;;;;;;4.00;4.00;;;;;;;;5123463;27;46208;-73
2023/07/30 00:52:47;;;;;;;;;6.00;5.00;;;;;;;;5122792;27;47039;-74
2023/07/30 00:55:13;;;;;;;;;4.67;4.67;;;;;;;;5123669;27;45328;-74
2023/07/30 00:57:39;;;;;;;;;5.67;5.67;;;;;;;;5123841;27;45302;-74
2023/07/30 01:00:08;;;;;;;;;5.00;5.00;;;;;;;;5123348;27;46237;-74
2023/07/30 01:02:34;;;;;;;;;4.33;4.33;;;;;;;;5123550;27;47634;-74
2023/07/30 01:05:00;;;;;;;;;6.00;5.00;;;;;;;;5123534;27;45346;-74
2023/07/30 01:07:26;;;;;;;;;5.33;5.00;;;;;;;;5123246;27;45348;-74
2023/07/30 01:09:51;;;;;;;;;2.33;2.00;;;;;;;;5123579;27;46433;-74
2023/07/30 01:12:16;;;;;;;;;5.00;4.00;;;;;;;;5123316;27;46982;-74
2023/07/30 01:14:42;;;;;;;;;4.67;3.33;;;;;;;;5123437;27;45400;-74
2023/07/30 01:17:07;;;;;;;;;5.00;4.00;;;;;;;;5123448;27;45328;-74
2023/07/30 01:19:33;;;;;;;;;4.67;3.67;;;;;;;;5123437;27;46032;-74
2023/07/30 01:21:58;;;;;;;;;2.00;2.00;;;;;;;;5122920;27;47729;-74
2023/07/30 01:24:23;;;;;;;;;1.00;1.00;;;;;;;;5123331;27;45255;-73
2023/07/30 01:26:56;;;;;;;;;5.00;2.00;;;;;;;;5123390;27;45334;-74
2023/07/30 01:29:24;;;;;;;;;3.00;3.00;;;;;;;;5113902;27;46022;-74
2023/07/30 01:31:53;;;;;;;;;3.33;1.33;;;;;;;;5102310;27;48148;-73
2023/07/30 01:34:18;;;;;;;;;2.00;2.00;;;;;;;;5120974;27;45357;-74
2023/07/30 01:36:44;;;;;;;;;3.00;2.33;;;;;;;;5102342;27;45382;-74
2023/07/30 01:39:11;;;;;;;;;2.00;2.00;;;;;;;;5102343;27;47470;-74
2023/07/30 01:41:36;;;;;;;;;3.00;2.00;;;;;;;;5102061;27;48281;-74
2023/07/30 01:44:01;;;;;;;;;3.00;3.00;;;;;;;;5102383;27;45342;-74
2023/07/30 01:46:27;;;;;;;;;4.00;3.00;;;;;;;;5102318;27;45409;-74
2023/07/30 01:48:52;;;;;;;;;1.67;1.00;;;;;;;;5102365;27;46158;-74
2023/07/30 01:51:17;;;;;;;;;1.67;1.67;;;;;;;;5101779;27;46481;-74
2023/07/30 01:53:42;;;;;;;;;3.33;3.33;;;;;;;;5102205;27;45314;-74
2023/07/30 01:56:07;;;;;;;;;2.00;1.67;;;;;;;;5102465;27;45302;-74
2023/07/30 01:58:33;;;;;;;;;2.00;1.00;;;;;;;;5102046;27;45954;-74
2023/07/30 02:00:58;;;;;;;;;4.00;2.00;;;;;;;;5102100;27;46924;-75
2023/07/30 02:03:23;;;;;;;;;3.00;1.00;;;;;;;;5102054;27;45824;-74
2023/07/30 02:05:48;;;;;;;;;2.00;2.00;;;;;;;;5104029;27;45355;-74
2023/07/30 02:08:15;;;;;;;;;4.00;1.67;;;;;;;;5105186;27;46593;-74
2023/07/30 02:10:41;;;;;;;;;6.00;3.00;;;;;;;;5105695;27;45388;-74
2023/07/30 02:13:06;;;;;;;;;3.33;3.33;;;;;;;;5105608;27;45400;-74
2023/07/30 02:15:31;;;;;;;;;1.67;1.00;;;;;;;;5105771;27;45578;-74
2023/07/30 02:17:56;;;;;;;;;2.00;2.00;;;;;;;;5105479;27;45946;-74
2023/07/30 02:20:21;;;;;;;;;2.33;2.33;;;;;;;;5105371;27;46998;-73
2023/07/30 02:22:47;;;;;;;;;3.00;3.00;;;;;;;;5105219;27;45339;-74
2023/07/30 02:25:13;;;;;;;;;2.67;2.67;;;;;;;;5105685;27;45447;-74
2023/07/30 02:27:38;;;;;;;;;1.00;1.00;;;;;;;;5105217;27;45488;-73
2023/07/30 02:30:04;;;;;;;;;2.00;2.00;;;;;;;;5120276;27;47565;-74
2023/07/30 02:32:29;;;;;;;;;3.00;3.00;;;;;;;;5126039;27;45338;-74
2023/07/30 02:34:54;;;;;;;;;3.00;2.67;;;;;;;;5126021;27;45255;-74
2023/07/30 02:37:19;;;;;;;;;4.00;2.33;;;;;;;;5125530;27;46501;-74
2023/07/30 02:39:45;;;;;;;;;2.33;1.67;;;;;;;;5125851;27;47879;-75
2023/07/30 02:42:10;;;;;;;;;2.67;2.67;;;;;;;;5125787;27;45364;-74
2023/07/30 02:44:35;;;;;;;;;2.00;2.00;;;;;;;;5126066;27;45311;-75
2023/07/30 02:47:00;;;;;;;;;2.67;2.00;;;;;;;;5125531;27;46796;-74
2023/07/30 02:49:25;;;;;;;;;3.00;2.00;;;;;;;;5125521;27;47119;-74
2023/07/30 02:51:51;;;;;;;;;1.67;1.00;;;;;;;;5144151;27;45286;-74
2023/07/30 02:54:16;;;;;;;;;0.67;0.67;;;;;;;;5125732;27;45278;-74
2023/07/30 02:56:42;;;;;;;;;2.00;1.00;;;;;;;;5125825;27;45937;-74
2023/07/30 02:59:07;;;;;;;;;2.00;1.00;;;;;;;;5125416;27;48089;-74
2023/07/30 03:01:32;;;;;;;;;1.33;1.33;;;;;;;;5144111;27;45287;-74
2023/07/30 03:03:58;;;;;;;;;2.00;1.00;;;;;;;;5125485;27;45497;-74
2023/07/30 03:06:23;;;;;;;;;2.67;2.67;;;;;;;;5125171;27;46669;-73
2023/07/30 03:08:48;;;;;;;;;3.00;3.00;;;;;;;;5125289;27;47327;-74
2023/07/30 03:11:13;;;;;;;;;3.00;3.00;;;;;;;;5125244;27;45334;-74
2023/07/30 03:13:39;;;;;;;;;3.00;3.00;;;;;;;;5125502;27;45419;-74
2023/07/30 03:16:04;;;;;;;;;2.00;2.00;;;;;;;;5124656;27;45531;-74
2023/07/30 03:18:29;;;;;;;;;2.00;2.00;;;;;;;;5125273;27;46708;-73
2023/07/30 03:20:59;;;;;;;;;2.67;2.00;;;;;;;;5125179;27;45647;-74
2023/07/30 03:23:24;;;;;;;;;2.00;2.00;;;;;;;;5125229;27;45372;-74
2023/07/30 03:25:49;;;;;;;;;5.33;2.67;;;;;;;;5124959;27;46791;-74
2023/07/30 03:28:14;;;;;;;;;3.00;2.00;;;;;;;;5125047;27;47280;-74
2023/07/30 03:30:39;;;;;;;;;3.67;1.67;;;;;;;;5104539;27;45276;-74
2023/07/30 03:33:05;;;;;;;;;3.00;1.67;;;;;;;;5104599;27;45223;-73
2023/07/30 03:35:30;;;;;;;;;3.33;3.33;;;;;;;;5104174;27;46956;-74
2023/07/30 03:37:55;;;;;;;;;2.67;2.67;;;;;;;;5104061;27;45382;-74
2023/07/30 03:40:20;;;;;;;;;2.00;2.00;;;;;;;;5103988;27;45522;-74
2023/07/30 03:42:45;;;;;;;;;1.00;1.00;;;;;;;;5104264;27;45219;-74
2023/07/30 03:45:11;;;;;;;;;3.00;3.00;;;;;;;;5103962;27;45210;-74
2023/07/30 03:47:36;;;;;;;;;2.33;2.33;;;;;;;;5103727;27;47421;-74
2023/07/30 03:50:01;;;;;;;;;5.00;3.00;;;;;;;;5103923;27;45218;-74
2023/07/30 03:52:26;;;;;;;;;5.00;2.00;;;;;;;;5103822;27;45285;-74
2023/07/30 03:54:51;;;;;;;;;1.00;1.00;;;;;;;;5104075;27;47510;-74
2023/07/30 03:57:16;;;;;;;;;3.33;3.33;;;;;;;;5103882;27;47063;-73
2023/07/30 03:59:42;;;;;;;;;2.67;2.67;;;;;;;;5103993;27;46008;-74
2023/07/30 04:02:07;;;;;;;;;3.33;3.33;;;;;;;;5104245;27;45332;-73
2023/07/30 04:04:32;;;;;;;;;2.67;2.67;;;;;;;;5103797;27;46858;-74
2023/07/30 04:06:57;;;;;;;;;2.00;1.00;;;;;;;;5102789;27;47331;-73
2023/07/30 04:09:23;;;;;;;;;3.00;3.00;;;;;;;;5121886;27;45375;-74
2023/07/30 04:11:48;;;;;;;;;1.33;1.33;;;;;;;;5102566;27;45324;-74
2023/07/30 04:14:13;;;;;;;;;1.67;1.67;;;;;;;;5103674;27;45439;-74
2023/07/30 04:16:38;;;;;;;;;3.00;2.67;;;;;;;;5103646;27;46766;-74
2023/07/30 04:19:03;;;;;;;;;2.00;1.00;;;;;;;;5103461;27;45356;-74
2023/07/30 04:21:29;;;;;;;;;2.67;2.00;;;;;;;;5103338;27;45330;-74
2023/07/30 04:23:54;;;;;;;;;2.00;2.00;;;;;;;;5103610;27;46022;-73
2023/07/30 04:26:19;;;;;;;;;3.33;2.00;;;;;;;;5103174;27;45554;-74
2023/07/30 04:28:44;;;;;;;;;1.00;1.00;;;;;;;;5106321;27;45388;-74
2023/07/30 04:31:09;;;;;;;;;4.00;3.00;;;;;;;;5124330;27;45457;-74
2023/07/30 04:33:35;;;;;;;;;3.00;2.33;;;;;;;;5123984;27;45712;-74
2023/07/30 04:36:00;;;;;;;;;1.33;1.00;;;;;;;;5123850;27;45456;-74
2023/07/30 04:38:25;;;;;;;;;2.00;2.00;;;;;;;;5123837;27;45308;-74
2023/07/30 04:40:50;;;;;;;;;3.00;1.67;;;;;;;;5124040;27;45389;-74
2023/07/30 04:43:16;;;;;;;;;2.00;2.00;;;;;;;;5123993;27;46023;-74
2023/07/30 04:45:42;;;;;;;;;3.00;2.67;;;;;;;;5123776;27;47347;-73
2023/07/30 04:48:07;;;;;;;;;3.67;2.00;;;;;;;;5123951;27;45282;-74
2023/07/30 04:50:32;;;;;;;;;4.33;2.33;;;;;;;;5123527;27;45388;-74
2023/07/30 04:52:57;;;;;;;;;2.00;2.00;;;;;;;;5123631;27;45964;-74
2023/07/30 04:55:23;;;;;;;;;2.00;1.00;;;;;;;;5123625;27;46273;-74
2023/07/30 04:57:48;;;;;;;;;5.00;3.67;;;;;;;;5123836;27;45327;-74
2023/07/30 05:00:13;;;;;;;;;3.33;2.33;;;;;;;;5123709;27;45375;-73
2023/07/30 05:02:38;;;;;;;;;3.00;3.00;;;;;;;;5123596;27;47343;-74
2023/07/30 05:05:04;;;;;;;;;3.00;1.00;;;;;;;;5123525;27;47076;-74
2023/07/30 05:07:29;;;;;;;;;1.00;1.00;;;;;;;;5123270;27;45869;-74
2023/07/30 05:09:54;;;;;;;;;3.00;2.00;;;;;;;;5123561;27;45318;-74
2023/07/30 05:12:19;;;;;;;;;1.67;1.00;;;;;;;;5123487;27;46656;-74
2023/07/30 05:14:44;;;;;;;;;2.00;2.00;;;;;;;;5123322;27;46703;-74
2023/07/30 05:17:10;;;;;;;;;3.00;3.00;;;;;;;;5123423;27;45836;-74
2023/07/30 05:19:35;;;;;;;;;3.67;3.00;;;;;;;;5123262;27;45297;-73
2023/07/30 05:22:01;;;;;;;;;3.00;3.00;;;;;;;;5122768;27;45712;-74
2023/07/30 05:24:26;;;;;;;;;3.00;2.00;;;;;;;;5123222;27;47741;-74
2023/07/30 05:26:52;;;;;;;;;3.33;2.00;;;;;;;;5123149;27;45301;-74
2023/07/30 05:29:17;;;;;;;;;3.33;2.00;;;;;;;;5114605;27;45379;-73
2023/07/30 05:31:42;;;;;;;;;2.00;1.33;;;;;;;;5102557;27;46714;-74
2023/07/30 05:34:07;;;;;;;;;3.33;3.33;;;;;;;;5102134;27;48398;-74
2023/07/30 05:36:32;;;;;;;;;2.67;2.67;;;;;;;;5102246;27;45360;-74
2023/07/30 05:38:58;;;;;;;;;4.00;2.00;;;;;;;;5102222;27;45371;-74
2023/07/30 05:41:23;;;;;;;;;3.33;3.33;;;;;;;;5102304;27;45769;-74
2023/07/30 05:43:48;;;;;;;;;4.33;2.00;;;;;;;;5120912;27;45303;-74
2023/07/30 05:46:14;;;;;;;;;5.00;3.33;;;;;;;;5102035;27;45406;-74
2023/07/30 05:48:39;;;;;;;;;3.67;3.00;;;;;;;;5102446;27;45549;-74
2023/07/30 05:51:04;;;;;;;;;3.33;3.33;;;;;;;;5101899;27;45428;-74
2023/07/30 05:53:29;;;;;;;;;3.00;2.67;;;;;;;;5102188;27;47945;-74
2023/07/30 05:55:54;;;;;;;;;2.67;2.67;;;;;;;;5120841;27;45289;-74
2023/07/30 05:58:20;;;;;;;;;3.67;3.00;;;;;;;;5102409;27;45355;-73
2023/07/30 06:00:45;;;;;;;;;4.00;1.33;;;;;;;;5102173;27;46852;-74
2023/07/30 06:03:11;;;;;;;;;5.00;3.00;;;;;;;;5101984;27;45887;-74
2023/07/30 06:05:40;;;;;;;;;3.00;3.00;;;;;;;;5120513;27;45307;-74
2023/07/30 06:08:05;;;;;;;;;4.00;4.00;;;;;;;;5102059;27;45269;-74
2023/07/30 06:10:30;;;;;;;;;3.67;3.67;;;;;;;;5101938;27;46912;-74
2023/07/30 06:12:56;;;;;;;;;1.33;1.00;;;;;;;;5101893;27;47074;-74
2023/07/30 06:15:21;;;;;;;;;3.00;3.00;;;;;;;;5120568;27;45313;-73
2023/07/30 06:17:46;;;;;;;;;3.00;1.00;;;;;;;;5102069;27;45294;-74
2023/07/30 06:20:11;;;;;;;;;2.33;2.33;;;;;;;;5101933;27;45937;-74
2023/07/30 06:22:36;;;;;;;;;3.33;3.00;;;;;;;;5101337;27;47011;-74
2023/07/30 06:25:02;;;;;;;;;2.00;2.00;;;;;;;;5120546;27;45388;-74
2023/07/30 06:27:27;;;;;;;;;2.00;2.00;;;;;;;;5101963;27;45303;-74
2023/07/30 06:29:52;;;;;;;;;2.00;2.00;;;;;;;;5115361;27;47027;-74
2023/07/30 06:32:18;;;;;;;;;5.00;3.00;;;;;;;;5122350;27;46979;-74
2023/07/30 06:34:43;;;;;;;;;2.67;2.67;;;;;;;;5122288;27;45350;-74
2023/07/30 06:37:08;;;;;;;;;3.33;3.33;;;;;;;;5122251;27;45274;-74
2023/07/30 06:39:33;;;;;;;;;3.00;3.00;;;;;;;;5122201;27;45664;-73
2023/07/30 06:41:59;;;;;;;;;3.00;3.00;;;;;;;;5118452;27;46960;-74
2023/07/30 06:44:25;;;;;;;;;3.67;2.33;;;;;;;;5118727;27;45317;-74
2023/07/30 06:46:50;;;;;;;;;3.67;3.00;;;;;;;;5118908;27;45318;-74
2023/07/30 06:49:15;;;;;;;;;5.67;3.33;;;;;;;;5118154;27;45833;-74
2023/07/30 06:51:40;;;;;;;;;3.67;3.67;;;;;;;;5119948;27;47045;-74
2023/07/30 06:54:06;;;;;;;;;5.33;3.67;;;;;;;;5122148;27;45376;-74
2023/07/30 06:56:31;;;;;;;;;3.00;3.00;;;;;;;;5122463;27;45356;-74
2023/07/30 06:58:56;;;;;;;;;5.00;5.00;;;;;;;;5122077;27;47416;-73
2023/07/30 07:01:21;;;;;;;;;5.00;5.00;;;;;;;;5122133;27;48375;-74
2023/07/30 07:03:46;;;;;;;;;4.00;3.00;;;;;;;;5122138;27;45374;-72
2023/07/30 07:06:12;;;;;;;;;3.33;2.00;;;;;;;;5121835;27;45260;-74
2023/07/30 07:08:37;;;;;;;;;4.00;4.00;;;;;;;;5121961;27;45600;-74
2023/07/30 07:11:02;;;;;;;;;4.50;2.00;;;;;;;;5121910;27;47879;-74
2023/07/30 07:13:28;;;;;;;;;9.00;5.67;;;;;;;;5121944;27;45297;-74
2023/07/30 07:15:53;;;;;;;;;3.00;2.00;;;;;;;;5106030;27;45274;-74
2023/07/30 07:18:18;;;;;;;;;3.00;2.67;;;;;;;;5101139;27;46513;-74
2023/07/30 07:20:43;;;;;;;;;4.00;3.33;;;;;;;;5102483;27;46186;-74
2023/07/30 07:23:08;;;;;;;;;4.00;2.33;;;;;;;;5101005;27;45259;-74
2023/07/30 07:25:34;;;;;;;;;2.50;2.00;;;;;;;;5100926;27;45199;-74
2023/07/30 07:27:59;;;;;;;;;3.00;3.00;;;;;;;;5101173;27;46672;-74
2023/07/30 07:30:24;;;;;;;;;1.33;1.00;;;;;;;;5118968;27;46706;-74
2023/07/30 07:32:53;;;;;;;;;4.33;3.00;;;;;;;;5121917;27;46277;-75
2023/07/30 07:35:19;;;;;;;;;3.33;2.67;;;;;;;;5121649;27;45481;-75
2023/07/30 07:37:44;;;;;;;;;2.25;2.00;;;;;;;;5121258;27;45598;-74
2023/07/30 07:40:09;;;;;;;;;4.00;4.00;;;;;;;;5121836;27;46381;-74
2023/07/30 07:42:36;;;;;;;;;8.00;5.00;;;;;;;;5107662;27;45365;-74
2023/07/30 07:45:01;;;;;;;;;4.00;3.67;;;;;;;;5125030;27;45323;-75
2023/07/30 07:47:26;;;;;;;;;3.00;3.00;;;;;;;;5124726;27;45842;-74
2023/07/30 07:49:51;;;;;;;;;4.50;3.00;;;;;;;;5124561;27;48072;-74
2023/07/30 07:52:17;;;;;;;;;5.75;3.75;;;;;;;;5124376;27;45346;-74
2023/07/30 07:54:42;;;;;;;;;3.00;3.00;;;;;;;;5124835;27;45294;-76
2023/07/30 07:57:08;;;;;;;;;5.25;3.75;;;;;;;;5124728;27;45535;-76
2023/07/30 07:59:33;;;;;;;;;5.00;3.25;;;;;;;;5124593;27;46900;-76
2023/07/30 08:01:59;;;;;;;;;2.00;2.00;;;;;;;;5124423;27;45362;-75
2023/07/30 08:04:24;;;;;;;;;2.75;2.75;;;;;;;;5143457;27;45210;-75
2023/07/30 08:06:49;;;;;;;;;5.00;4.00;;;;;;;;5124099;27;45349;-75
2023/07/30 08:09:14;;;;;;;;;3.00;3.00;;;;;;;;5124434;27;46683;-75
2023/07/30 08:11:39;;;;;;;;;5.00;3.00;;;;;;;;5124339;27;45661;-75
2023/07/30 08:14:05;;;;;;;;;4.33;3.00;;;;;;;;5124571;27;45303;-75
2023/07/30 08:16:30;;;;;;;;;4.00;4.00;;;;;;;;5124243;27;46041;-74
2023/07/30 08:18:55;;;;;;;;;5.00;3.33;;;;;;;;5124238;27;46484;-74
2023/07/30 08:21:20;;;;;;;;;3.67;3.67;;;;;;;;5123939;27;45649;-75
2023/07/30 08:23:46;;;;;;;;;4.67;3.33;;;;;;;;5124321;27;45285;-75
2023/07/30 08:26:11;;;;;;;;;4.33;4.00;;;;;;;;5123909;27;47147;-75
2023/07/30 08:28:36;;;;;;;;;6.00;4.00;;;;;;;;5106561;27;46959;-76
2023/07/30 08:31:05;;;;;;;;;4.75;3.00;;;;;;;;5101434;27;45813;-76
2023/07/30 08:33:30;;;;;;;;;3.33;3.00;;;;;;;;5103153;27;45424;-76
2023/07/30 08:35:56;;;;;;;;;4.00;3.00;;;;;;;;5102647;27;45494;-75
2023/07/30 08:38:21;;;;;;;;;2.00;2.00;;;;;;;;5103146;27;47570;-75
2023/07/30 08:40:47;;;;;;;;;5.00;5.00;;;;;;;;5102997;27;45316;-76
2023/07/30 08:43:12;;;;;;;;;4.00;3.75;;;;;;;;5103532;27;45337;-75
2023/07/30 08:45:37;;;;;;;;;3.00;3.00;;;;;;;;5103167;27;45868;-75
2023/07/30 08:48:03;;;;;;;;;5.33;5.00;;;;;;;;5102985;27;47791;-75
2023/07/30 08:50:28;;;;;;;;;3.50;3.25;;;;;;;;5121165;27;45334;-75
2023/07/30 08:52:55;;;;;;;;;3.50;3.50;;;;;;;;5102448;27;45418;-75
2023/07/30 08:55:21;;;;;;;;;4.25;3.75;;;;;;;;5102547;27;45427;-75
2023/07/30 08:57:47;;;;;;;;;4.75;4.25;;;;;;;;5102567;27;46907;-75
2023/07/30 09:00:14;;;;;;;;;5.25;5.00;;;;;;;;5102428;27;45353;-76
2023/07/30 09:02:44;;;;;;;;;3.25;3.25;;;;;;;;5121211;27;45412;-74
2023/07/30 09:05:09;;;;;;;;;5.67;4.00;;;;;;;;5102490;27;46738;-75
2023/07/30 09:07:34;;;;;;;;;4.50;4.50;;;;;;;;5101767;27;46996;-75
2023/07/30 09:10:00;;;;;;;;;2.50;2.50;;;;;;;;5102472;27;45338;-74
2023/07/30 09:12:26;;;;;;;;;3.75;3.25;;;;;;;;5102677;27;45265;-76
2023/07/30 09:14:51;;;;;;;;;2.50;2.50;;;;;;;;5101940;27;47241;-74
2023/07/30 09:17:17;;;;;;;;;5.50;3.75;;;;;;;;5102357;27;45334;-75
2023/07/30 09:19:43;;;;;;;;;2.25;2.25;;;;;;;;5102350;27;45377;-75
2023/07/30 09:22:08;;;;;;;;;3.00;3.00;;;;;;;;5102294;27;45333;-75
2023/07/30 09:24:33;;;;;;;;;5.67;3.67;;;;;;;;5101866;27;47211;-75
2023/07/30 09:27:01;;;;;;;;;3.00;3.00;;;;;;;;5120927;27;45305;-76
2023/07/30 09:29:26;;;;;;;;;6.33;6.00;;;;;;;;5104945;27;46084;-75
2023/07/30 09:31:56;;;;;;;;;5.33;5.00;;;;;;;;5102467;27;45416;-75
2023/07/30 09:34:22;;;;;;;;;5.00;4.00;;;;;;;;5101944;27;46082;-75
2023/07/30 09:36:49;;;;;;;;;3.67;3.67;;;;;;;;5101684;27;46198;-75
2023/07/30 09:39:16;;;;;;;;;3.00;3.00;;;;;;;;5120687;27;45263;-76
2023/07/30 09:41:45;;;;;;;;;5.33;5.00;;;;;;;;5101961;27;45590;-75
2023/07/30 09:44:10;;;;;;;;;3.00;3.00;;;;;;;;5102064;27;45472;-75
2023/07/30 09:46:42;;;;;;;;;4.33;4.33;;;;;;;;5101675;27;46150;-75
2023/07/30 09:49:08;;;;;;;;;4.25;4.25;;;;;;;;5101872;27;45396;-75
2023/07/30 09:51:34;;;;;;;;;6.00;5.00;;;;;;;;5101747;27;45321;-75
2023/07/30 09:54:00;;;;;;;;;4.25;3.00;;;;;;;;5102214;27;46588;-76
2023/07/30 09:56:25;;;;;;;;;5.00;5.00;;;;;;;;5101813;27;48159;-75
2023/07/30 09:58:50;;;;;;;;;4.33;4.33;;;;;;;;5102059;27;45233;-75
2023/07/30 10:01:17;;;;;;;;;4.75;4.00;;;;;;;;5102444;27;45521;-75
2023/07/30 10:03:42;;;;;;;;;3.00;2.50;;;;;;;;5102106;27;46872;-75
2023/07/30 10:06:08;;;;;;;;;2.75;2.75;;;;;;;;5101467;27;47244;-75
2023/07/30 10:08:35;;;;;;;;;2.00;2.00;;;;;;;;5101640;27;45747;-75
2023/07/30 10:11:03;;;;;;;;;5.25;4.00;;;;;;;;5102217;27;45385;-75
2023/07/30 10:13:29;;;;;;;;;2.75;2.75;;;;;;;;5102119;27;45258;-74
2023/07/30 10:15:54;;;;;;;;;5.75;5.75;;;;;;;;5101923;27;47091;-75
2023/07/30 10:18:21;;;;;;;;;4.75;3.00;;;;;;;;5101616;27;45773;-75
2023/07/30 10:20:54;;;;;;;;;7.00;6.25;;;;;;;;5101812;27;45253;-75
2023/07/30 10:23:19;;;;;;;;;2.50;2.50;;;;;;;;5101768;27;46683;-72
2023/07/30 10:25:52;;;;;;;;;3.00;3.00;;;;;;;;5101870;27;46657;-75
2023/07/30 10:28:30;;;;;;;;;4.50;4.50;;;;;;;;5105388;27;45956;-75
2023/07/30 10:30:56;;;;;;;;;2.50;2.50;;;;;;;;5125901;27;45188;-74
2023/07/30 10:33:21;;;;;;;;;3.00;3.00;;;;;;;;5125775;27;45276;-76
2023/07/30 10:35:46;;;;;;;;;2.75;2.75;;;;;;;;5125337;27;46949;-76
2023/07/30 10:38:15;;;;;;;;;4.25;3.25;;;;;;;;5125897;27;45289;-75
2023/07/30 10:40:40;;;;;;;;;4.25;4.00;;;;;;;;5125866;27;45431;-76
2023/07/30 10:43:15;;;;;;;;;3.25;3.25;;;;;;;;5125481;27;45488;-76
2023/07/30 10:45:50;;;;;;;;;3.00;3.00;;;;;;;;5106852;27;45472;-76
2023/07/30 10:48:16;;;;;;;;;4.50;4.50;;;;;;;;5105132;27;45353;-76
2023/07/30 10:50:41;;;;;;;;;4.75;4.75;;;;;;;;5104809;27;45476;-76
2023/07/30 10:53:08;;;;;;;;;3.75;3.00;;;;;;;;5104966;27;46056;-75
2023/07/30 10:55:33;;;;;;;;;3.00;3.00;;;;;;;;5104838;27;47981;-76
2023/07/30 10:57:59;;;;;;;;;5.00;5.00;;;;;;;;5105062;27;45242;-76
2023/07/30 11:00:25;;;;;;;;;7.25;7.00;;;;;;;;5105111;27;45278;-75
2023/07/30 11:02:56;;;;;;;;;5.00;5.00;;;;;;;;5104886;27;46172;-75
2023/07/30 11:05:21;;;;;;;;;5.75;4.50;;;;;;;;5104387;27;47344;-76
2023/07/30 11:07:49;;;;;;;;;7.00;7.00;;;;;;;;5104206;27;45299;-75
2023/07/30 11:10:14;;;;;;;;;5.33;5.33;;;;;;;;5104853;27;45290;-76
2023/07/30 11:12:39;;;;;;;;;4.00;4.00;;;;;;;;5104680;27;45877;-76
2023/07/30 11:15:05;;;;;;;;;5.00;5.00;;;;;;;;5104567;27;48257;-75
2023/07/30 11:17:30;;;;;;;;;4.00;4.00;;;;;;;;5104660;27;45266;-75
2023/07/30 11:19:55;;;;;;;;;4.50;3.00;;;;;;;;5104502;27;45199;-76
2023/07/30 11:22:29;;;;;;;;;5.75;5.25;;;;;;;;5104238;27;46801;-76
2023/07/30 11:24:55;;;;;;;;;3.25;3.25;;;;;;;;5104205;27;47280;-76
2023/07/30 11:27:20;;;;;;;;;4.50;4.50;;;;;;;;5104478;27;45413;-76
2023/07/30 11:29:53;;;;;;;;;5.75;4.50;;;;;;;;5117160;27;45253;-76
2023/07/30 11:32:18;;;;;;;;;3.75;3.75;;;;;;;;5125029;27;47150;-76
2023/07/30 11:34:44;;;;;;;;;5.50;3.00;;;;;;;;5125000;27;46663;-76
2023/07/30 11:37:09;;;;;;;;;4.00;2.50;;;;;;;;5124285;27;45316;-76
2023/07/30 11:39:35;;;;;;;;;4.00;4.00;;;;;;;;5125310;27;45238;-77
2023/07/30 11:42:00;;;;;;;;;6.75;4.00;;;;;;;;5124726;27;45873;-75
2023/07/30 11:44:29;;;;;;;;;4.25;4.25;;;;;;;;5124907;27;45411;-74
2023/07/30 11:46:55;;;;;;;;;4.00;4.00;;;;;;;;5124766;27;46247;-74
2023/07/30 11:49:21;;;;;;;;;4.25;4.25;;;;;;;;5124919;27;45345;-74
2023/07/30 11:51:48;;;;;;;;;5.00;3.25;;;;;;;;5124396;27;46740;-74
2023/07/30 11:54:25;;;;;;;;;4.00;4.00;;;;;;;;5124671;27;47902;-74
2023/07/30 11:56:54;;;;;;;;;3.25;3.00;;;;;;;;5124659;27;45316;-75
2023/07/30 11:59:20;;;;;;;;;3.00;3.00;;;;;;;;5124811;27;45392;-74
2023/07/30 12:01:45;;;;;;;;;3.00;3.00;;;;;;;;5124510;27;47035;-75
2023/07/30 12:04:11;;;;;;;;;2.50;2.50;;;;;;;;5124483;27;45478;-75
2023/07/30 12:06:46;;;;;;;;;3.50;3.50;;;;;;;;5142764;27;45346;-74
2023/07/30 12:09:16;;;;;;;;;4.33;4.33;;;;;;;;5143351;27;45333;-74
2023/07/30 12:11:54;;;;;;;;;2.00;2.00;;;;;;;;5124391;27;47116;-76
2023/07/30 12:14:22;;;;;;;;;3.25;2.50;;;;;;;;5107113;27;46968;-74
2023/07/30 12:16:47;;;;;;;;;2.50;2.50;;;;;;;;5124345;27;45539;-74
2023/07/30 12:19:12;;;;;;;;;2.25;1.75;;;;;;;;5123814;27;45328;-74
2023/07/30 12:21:38;;;;;;;;;3.75;2.00;;;;;;;;5123930;27;45650;-76
2023/07/30 12:24:03;;;;;;;;;4.25;2.75;;;;;;;;5124034;27;46807;-74
2023/07/30 12:26:29;;;;;;;;;2.75;2.50;;;;;;;;5124166;27;45259;-75
2023/07/30 12:28:54;;;;;;;;;4.25;4.25;;;;;;;;5118838;27;45232;-74
2023/07/30 12:31:19;;;;;;;;;2.75;1.75;;;;;;;;5103613;27;46750;-73
2023/07/30 12:33:44;;;;;;;;;12.00;12.00;;;;;;;;5103434;27;47107;-74
2023/07/30 12:36:10;;;;;;;;;4.00;2.75;;;;;;;;5102998;27;45520;-75
2023/07/30 12:38:35;;;;;;;;;3.00;3.00;;;;;;;;5103627;27;45251;-74
2023/07/30 12:41:00;;;;;;;;;3.00;3.00;;;;;;;;5103121;27;45367;-75
2023/07/30 12:43:25;;;;;;;;;2.00;2.00;;;;;;;;5103193;27;46881;-74
2023/07/30 12:45:51;;;;;;;;;1.75;1.75;;;;;;;;5103372;27;45253;-74
2023/07/30 12:48:16;;;;;;;;;1.75;1.25;;;;;;;;5102827;27;45231;-75
2023/07/30 12:50:41;;;;;;;;;1.00;1.00;;;;;;;;5102285;27;46204;-76
2023/07/30 12:53:06;;;;;;;;;3.33;2.67;;;;;;;;5103088;27;46974;-76
2023/07/30 12:55:32;;;;;;;;;4.00;4.00;;;;;;;;5103084;27;45333;-75
2023/07/30 12:57:57;;;;;;;;;1.00;1.00;;;;;;;;5103271;27;45251;-75
2023/07/30 13:00:22;;;;;;;;;2.75;1.25;;;;;;;;5108303;27;45437;-75
2023/07/30 13:02:47;;;;;;;;;4.00;4.00;;;;;;;;5100826;27;45379;-75
2023/07/30 13:05:15;;;;;;;;;1.75;1.75;;;;;;;;5082546;27;45343;-75
2023/07/30 13:07:40;;;;;;;;;1.25;1.25;;;;;;;;5100886;27;45386;-76
2023/07/30 13:10:06;;;;;;;;;2.00;2.00;;;;;;;;5082142;27;45928;-75
2023/07/30 13:12:32;;;;;;;;;2.25;2.25;;;;;;;;5082401;27;48011;-75
2023/07/30 13:14:57;;;;;;;;;2.25;2.25;;;;;;;;5082326;27;45401;-75
2023/07/30 13:17:22;;;;;;;;;4.50;4.00;;;;;;;;5082697;27;45324;-75
2023/07/30 13:19:47;;;;;;;;;4.50;2.00;;;;;;;;5082149;27;46124;-75
2023/07/30 13:22:13;;;;;;;;;2.25;2.25;;;;;;;;5081890;27;46726;-76
2023/07/30 13:24:39;;;;;;;;;2.50;2.50;;;;;;;;5082273;27;45751;-75
2023/07/30 13:27:04;;;;;;;;;3.25;2.00;;;;;;;;5100670;27;45270;-75
2023/07/30 13:29:30;;;;;;;;;2.50;2.50;;;;;;;;5102654;27;46161;-75
2023/07/30 13:31:55;;;;;;;;;3.25;3.25;;;;;;;;5123291;27;48203;-74
2023/07/30 13:34:21;;;;;;;;;2.75;2.75;;;;;;;;5123189;27;45260;-75
2023/07/30 13:36:46;;;;;;;;;3.00;2.75;;;;;;;;5123098;27;45363;-74
2023/07/30 13:39:11;;;;;;;;;1.50;1.50;;;;;;;;5123093;27;46149;-74
2023/07/30 13:41:36;;;;;;;;;4.50;3.25;;;;;;;;5122988;27;48129;-74
2023/07/30 13:44:02;;;;;;;;;3.00;3.00;;;;;;;;5123188;27;45244;-77
2023/07/30 13:46:27;;;;;;;;;3.25;3.25;;;;;;;;5123212;27;45327;-77
2023/07/30 13:48:52;;;;;;;;;2.00;2.00;;;;;;;;5122944;27;46000;-77
2023/07/30 13:51:17;;;;;;;;;3.00;3.00;;;;;;;;5122663;27;47899;-74
2023/07/30 13:53:43;;;;;;;;;3.00;3.00;;;;;;;;5122858;27;45306;-75
2023/07/30 13:56:08;;;;;;;;;3.00;3.00;;;;;;;;5123093;27;45326;-75
2023/07/30 13:58:33;;;;;;;;;2.00;2.00;;;;;;;;5122789;27;45578;-74
2023/07/30 14:00:58;;;;;;;;;2.00;2.00;;;;;;;;5125068;27;48346;-74
2023/07/30 14:03:23;;;;;;;;;1.25;0.00;;;;;;;;5126654;27;45407;-74
2023/07/30 14:05:49;;;;;;;;;2.00;2.00;;;;;;;;5126228;27;45364;-74
2023/07/30 14:08:14;;;;;;;;;2.50;2.50;;;;;;;;5145102;27;45655;-74
2023/07/30 14:10:39;;;;;;;;;3.25;3.00;;;;;;;;5126300;27;47675;-75
2023/07/30 14:13:04;;;;;;;;;1.50;1.50;;;;;;;;5126132;27;45350;-74
2023/07/30 14:15:30;;;;;;;;;3.00;3.00;;;;;;;;5126351;27;45431;-75
2023/07/30 14:17:55;;;;;;;;;3.00;3.00;;;;;;;;5126174;27;47015;-75
2023/07/30 14:20:21;;;;;;;;;3.75;3.00;;;;;;;;5125443;27;47210;-74
2023/07/30 14:22:46;;;;;;;;;3.50;3.50;;;;;;;;5125980;27;45362;-75
2023/07/30 14:25:11;;;;;;;;;2.00;1.75;;;;;;;;5126322;27;45377;-76
2023/07/30 14:27:36;;;;;;;;;4.00;2.25;;;;;;;;5126098;27;45805;-77
2023/07/30 14:30:01;;;;;;;;;3.00;3.00;;;;;;;;5110971;27;46227;-75
2023/07/30 14:32:27;;;;;;;;;5.00;5.00;;;;;;;;5105420;27;45636;-75
2023/07/30 14:34:52;;;;;;;;;3.75;2.75;;;;;;;;5124213;27;45307;-76